New Paltz, NY (12561)

1:00 AM EDT on July 25, 2016 (GMT -0400)
SUNY New Paltz | | Change Station

Elev 322 ft 41.73 °N, 74.09 °W | Updated 4 minutes ago

Clear
Clear
69.1 °F
Feels Like 69.1 °F
N
0.0
Wind Variable Wind from SSE
Gusts 1.0 mph

Today
High -- | Low -- °F
--% Chance of Precip.
Yesterday
High -- | Low -- °F
Precip. -- in
Pressure 29.94 in
Visibility 10.0 miles
Clouds Clear
Dew Point 65 °F
Humidity 87%
Rainfall 0.00 in
Snow Depth Not available.
5:44 AM 8:21 PM
Waning Gibbous, 69% visible
METAR KPOU 250453Z AUTO 00000KT 10SM CLR 23/19 A2995 RMK AO2 SLP138 T02280189 403440167
Pressure 29.94 in
Visibility 10.0 miles
Clouds Clear
Dew Point 65 °F
Humidity 87%
Rainfall 0.00 in
Snow Depth Not available.
5:44 AM 8:21 PM
Waning Gibbous, 69% visible
METAR KPOU 250453Z AUTO 00000KT 10SM CLR 23/19 A2995 RMK AO2 SLP138 T02280189 403440167

10-Day Weather Forecast

Almanac

Astronomy

Jul. 25, 2016 Rise Set
Actual Time
Civil Twilight
Nautical Twilight
Astronomical Twilight
Moon
Length of Visible Light
Length of Day
Tomorrow will be .
, % of the Moon is Illuminated

Today's Extremes

State Highs State Lows

Community

WunderPhotos

Upload Photos

1,927,266 photos uploaded!

WunderBlog® & News

Nearby

Air Quality

  Air Quality AQ Index Pollutant
Not available.

Snow Depth

Station Depth Elevation

Earthquake Activity

City Distance Mag. Time & Date
Minimum magnitude displayed is 2.5.

Coastal Water Temperatures

Place Temperature

Stations

Nearby Weather Stations

Station Location Temp. Windchill Dew Point Humidity Wind Precip. Elev Updated Type
                   

Watches & Warnings

There are currently no watches in effect.